Time;durP1;ratioP1;P1;durP2;ratioP2;P2;SDS_P1;SDS_P2;PMS_P1;PMS_P2;Temp;Humidity;BMP_temperature;BMP_pressure;BME280_temperature;BME280_humidity;BME280_pressure;Samples;Min_cycle;Max_cycle;Signal;HPM_P1;HPM_P2
2021/08/31 00:00:43;;;;;;;6.53;3.35;;;;;;;;;;5075839;28;20049;-68
2021/08/31 00:03:11;;;;;;;6.15;3.22;;;;;;;;;;5075634;28;20389;-67
2021/08/31 00:05:38;;;;;;;6.03;2.80;;;;;;;;;;5072056;28;20048;-68
2021/08/31 00:08:05;;;;;;;8.77;3.20;;;;;;;;;;5066567;28;20048;-68
2021/08/31 00:10:32;;;;;;;5.97;3.28;;;;;;;;;;5077038;28;20052;-69
2021/08/31 00:12:58;;;;;;;8.65;3.47;;;;;;;;;;5069721;28;20503;-69
2021/08/31 00:15:25;;;;;;;5.32;3.25;;;;;;;;;;5059718;28;20052;-69
2021/08/31 00:17:51;;;;;;;5.90;2.75;;;;;;;;;;5069643;28;20052;-70
2021/08/31 00:20:19;;;;;;;5.40;2.88;;;;;;;;;;5076132;28;20481;-69
2021/08/31 00:22:46;;;;;;;5.03;2.95;;;;;;;;;;5071418;28;20056;-69
2021/08/31 00:25:13;;;;;;;4.22;2.67;;;;;;;;;;5075736;28;20686;-69
2021/08/31 00:27:39;;;;;;;5.13;3.10;;;;;;;;;;5059118;28;20057;-69
2021/08/31 00:30:07;;;;;;;7.07;3.20;;;;;;;;;;5076985;28;20485;-68
2021/08/31 00:32:34;;;;;;;5.57;2.78;;;;;;;;;;5075723;28;20108;-69
2021/08/31 00:35:00;;;;;;;8.57;3.30;;;;;;;;;;5075969;28;20048;-69
2021/08/31 00:37:28;;;;;;;4.78;2.70;;;;;;;;;;5058073;28;20049;-68
2021/08/31 00:39:56;;;;;;;4.97;2.20;;;;;;;;;;5065997;28;20044;-69
2021/08/31 00:42:23;;;;;;;5.85;2.47;;;;;;;;;;5075426;28;20045;-68
2021/08/31 00:44:49;;;;;;;5.35;2.70;;;;;;;;;;5064353;28;20052;-68
2021/08/31 00:47:16;;;;;;;4.65;2.28;;;;;;;;;;5064345;28;20052;-69
2021/08/31 00:49:43;;;;;;;5.47;2.83;;;;;;;;;;5073344;28;20052;-69
2021/08/31 00:52:09;;;;;;;6.45;2.63;;;;;;;;;;5075867;28;20713;-70
2021/08/31 00:54:38;;;;;;;7.53;3.30;;;;;;;;;;5074813;28;20052;-68
2021/08/31 00:57:05;;;;;;;4.90;2.97;;;;;;;;;;5074465;28;20052;-68
2021/08/31 00:59:32;;;;;;;6.60;2.60;;;;;;;;;;5067583;28;20048;-68
2021/08/31 01:01:59;;;;;;;3.63;2.33;;;;;;;;;;5075235;28;20048;-68
2021/08/31 01:04:27;;;;;;;4.00;2.35;;;;;;;;;;5074033;28;20049;-67
2021/08/31 01:06:53;;;;;;;3.67;2.15;;;;;;;;;;5073886;28;20769;-67
2021/08/31 01:09:20;;;;;;;4.05;2.40;;;;;;;;;;5072820;28;20063;-67
2021/08/31 01:11:49;;;;;;;4.18;2.88;;;;;;;;;;5070371;28;20044;-68
2021/08/31 01:14:16;;;;;;;5.72;2.13;;;;;;;;;;5070364;28;20048;-67
2021/08/31 01:16:43;;;;;;;5.85;2.50;;;;;;;;;;5070493;28;20393;-67
2021/08/31 01:19:09;;;;;;;5.18;2.63;;;;;;;;;;5074680;28;20057;-67
2021/08/31 01:21:36;;;;;;;3.88;2.40;;;;;;;;;;5070159;28;20421;-67
2021/08/31 01:24:02;;;;;;;3.83;2.13;;;;;;;;;;5070582;28;20051;-67
2021/08/31 01:26:30;;;;;;;7.10;3.00;;;;;;;;;;5070682;28;20523;-68
2021/08/31 01:29:00;;;;;;;4.30;2.40;;;;;;;;;;5070744;28;20045;-67
2021/08/31 01:31:27;;;;;;;5.78;2.55;;;;;;;;;;5069478;28;20048;-67
2021/08/31 01:33:54;;;;;;;4.57;2.38;;;;;;;;;;5070835;28;20056;-67
2021/08/31 01:36:22;;;;;;;5.07;2.47;;;;;;;;;;5071563;28;20155;-67
2021/08/31 01:38:49;;;;;;;5.35;3.15;;;;;;;;;;5071635;28;20386;-67
2021/08/31 01:41:16;;;;;;;4.82;2.00;;;;;;;;;;5055013;28;20049;-67
2021/08/31 01:43:44;;;;;;;6.85;2.85;;;;;;;;;;5062455;28;20056;-67
2021/08/31 01:46:10;;;;;;;4.10;2.20;;;;;;;;;;5071624;28;20063;-67
2021/08/31 01:48:37;;;;;;;5.25;2.72;;;;;;;;;;5071203;28;20057;-67
2021/08/31 01:51:03;;;;;;;6.15;3.33;;;;;;;;;;5071541;28;20049;-67
2021/08/31 01:53:30;;;;;;;4.57;2.97;;;;;;;;;;5071287;28;20045;-67
2021/08/31 01:55:56;;;;;;;4.53;2.33;;;;;;;;;;5070603;28;20058;-67
2021/08/31 01:58:23;;;;;;;5.07;2.75;;;;;;;;;;5070603;28;20049;-67
2021/08/31 02:00:51;;;;;;;5.97;2.40;;;;;;;;;;5068919;28;20059;-67
2021/08/31 02:03:18;;;;;;;4.28;2.65;;;;;;;;;;5070053;28;20056;-68
2021/08/31 02:05:44;;;;;;;6.93;2.85;;;;;;;;;;5071011;28;20052;-68
2021/08/31 02:08:11;;;;;;;5.85;3.22;;;;;;;;;;5071489;28;20064;-68
2021/08/31 02:10:37;;;;;;;7.30;2.70;;;;;;;;;;5071576;28;20060;-67
2021/08/31 02:13:04;;;;;;;6.78;3.55;;;;;;;;;;5071439;28;20405;-68
2021/08/31 02:15:30;;;;;;;5.00;2.58;;;;;;;;;;5075320;28;20056;-68
2021/08/31 02:17:58;;;;;;;4.38;2.28;;;;;;;;;;5075208;28;20485;-67
2021/08/31 02:20:25;;;;;;;4.93;2.78;;;;;;;;;;5075330;28;20056;-67
2021/08/31 02:22:51;;;;;;;7.75;2.60;;;;;;;;;;5075383;28;20049;-68
2021/08/31 02:25:18;;;;;;;5.30;2.65;;;;;;;;;;5074680;28;20053;-68
2021/08/31 02:27:44;;;;;;;7.45;3.03;;;;;;;;;;5074867;28;20496;-68
2021/08/31 02:30:12;;;;;;;5.93;3.08;;;;;;;;;;5074518;28;20044;-68
2021/08/31 02:32:38;;;;;;;5.97;2.78;;;;;;;;;;5074311;28;20493;-68
2021/08/31 02:35:08;;;;;;;6.05;2.90;;;;;;;;;;5074121;28;20045;-67
2021/08/31 02:37:34;;;;;;;5.28;2.70;;;;;;;;;;5075001;28;20075;-67
2021/08/31 02:40:02;;;;;;;5.15;2.53;;;;;;;;;;5074542;28;20467;-68
2021/08/31 02:42:28;;;;;;;6.43;2.72;;;;;;;;;;5074667;28;20045;-68
2021/08/31 02:44:55;;;;;;;7.95;2.75;;;;;;;;;;5074286;28;20141;-68
2021/08/31 02:47:21;;;;;;;6.60;3.00;;;;;;;;;;5074949;28;20052;-67
2021/08/31 02:49:48;;;;;;;4.85;3.10;;;;;;;;;;5074117;28;20048;-67
2021/08/31 02:52:16;;;;;;;6.85;3.58;;;;;;;;;;5074507;28;20063;-68
2021/08/31 02:54:43;;;;;;;4.80;2.97;;;;;;;;;;5074325;28;20051;-68
2021/08/31 02:57:09;;;;;;;5.15;2.97;;;;;;;;;;5073125;28;20052;-68
2021/08/31 02:59:36;;;;;;;7.68;3.95;;;;;;;;;;5072772;28;20444;-68
2021/08/31 03:02:06;;;;;;;5.47;3.22;;;;;;;;;;5073573;28;20580;-68
2021/08/31 03:04:33;;;;;;;7.63;3.58;;;;;;;;;;5074366;28;20040;-68
2021/08/31 03:06:59;;;;;;;6.13;3.33;;;;;;;;;;5074590;28;20041;-68
2021/08/31 03:09:27;;;;;;;7.63;3.22;;;;;;;;;;5074214;28;20076;-68
2021/08/31 03:11:53;;;;;;;6.25;3.47;;;;;;;;;;5073747;28;20044;-68
2021/08/31 03:14:21;;;;;;;6.65;3.55;;;;;;;;;;5074075;28;20477;-68
2021/08/31 03:16:48;;;;;;;5.30;3.13;;;;;;;;;;5073988;28;20052;-68
2021/08/31 03:19:14;;;;;;;7.60;3.97;;;;;;;;;;5073807;28;20074;-68
2021/08/31 03:21:41;;;;;;;5.68;3.63;;;;;;;;;;5065294;28;20436;-68
2021/08/31 03:24:07;;;;;;;7.65;4.10;;;;;;;;;;5073198;28;20439;-67
2021/08/31 03:26:35;;;;;;;6.75;3.92;;;;;;;;;;5070818;28;20064;-68
2021/08/31 03:29:02;;;;;;;7.00;3.92;;;;;;;;;;5063453;28;20051;-68
2021/08/31 03:31:29;;;;;;;6.57;4.32;;;;;;;;;;5073044;28;20059;-68
2021/08/31 03:33:55;;;;;;;6.65;3.60;;;;;;;;;;5068858;28;20048;-67
2021/08/31 03:36:22;;;;;;;4.75;3.20;;;;;;;;;;5069368;28;20477;-68
2021/08/31 03:38:48;;;;;;;7.43;4.43;;;;;;;;;;5073119;28;20044;-68
2021/08/31 03:41:15;;;;;;;5.85;3.80;;;;;;;;;;5068235;28;20482;-67
2021/08/31 03:43:42;;;;;;;9.13;3.88;;;;;;;;;;5081264;28;20052;-68
2021/08/31 03:46:09;;;;;;;7.45;3.72;;;;;;;;;;5093605;28;20059;-67
2021/08/31 03:48:35;;;;;;;6.63;3.42;;;;;;;;;;5079628;28;20052;-68
2021/08/31 03:51:02;;;;;;;7.47;3.97;;;;;;;;;;5068327;28;20051;-67
2021/08/31 03:53:28;;;;;;;6.45;3.65;;;;;;;;;;5073142;28;20052;-68
2021/08/31 03:55:55;;;;;;;5.95;3.97;;;;;;;;;;5073342;28;20056;-68
2021/08/31 03:58:21;;;;;;;4.75;2.83;;;;;;;;;;5072198;28;20056;-68
2021/08/31 04:00:49;;;;;;;6.45;3.58;;;;;;;;;;5071779;28;20044;-68
2021/08/31 04:03:15;;;;;;;6.20;3.13;;;;;;;;;;5072813;28;20045;-67
2021/08/31 04:05:42;;;;;;;5.60;3.58;;;;;;;;;;5072876;28;20040;-67
2021/08/31 04:08:08;;;;;;;6.93;3.28;;;;;;;;;;5073016;28;20070;-67
2021/08/31 04:10:35;;;;;;;6.15;3.33;;;;;;;;;;5072472;28;20489;-67
2021/08/31 04:13:02;;;;;;;5.63;3.45;;;;;;;;;;5072079;28;20509;-67
2021/08/31 04:15:28;;;;;;;6.45;3.55;;;;;;;;;;5064425;28;20068;-67
2021/08/31 04:17:56;;;;;;;4.60;3.00;;;;;;;;;;5072973;28;20052;-67
2021/08/31 04:20:22;;;;;;;5.80;3.35;;;;;;;;;;5072452;28;20059;-67
2021/08/31 04:22:49;;;;;;;7.35;3.95;;;;;;;;;;5072320;28;20052;-67
2021/08/31 04:25:15;;;;;;;6.95;4.28;;;;;;;;;;5072007;28;20049;-67
2021/08/31 04:27:42;;;;;;;6.82;3.85;;;;;;;;;;5072511;28;20051;-67
2021/08/31 04:30:09;;;;;;;5.50;2.97;;;;;;;;;;5072833;28;20055;-67
2021/08/31 04:32:36;;;;;;;6.72;3.92;;;;;;;;;;5072156;28;20052;-68
2021/08/31 04:35:04;;;;;;;8.43;3.40;;;;;;;;;;5071647;28;20071;-67
2021/08/31 04:37:31;;;;;;;6.45;3.17;;;;;;;;;;5072350;28;20065;-67
2021/08/31 04:39:58;;;;;;;5.40;3.00;;;;;;;;;;5071877;28;20048;-67
2021/08/31 04:42:24;;;;;;;5.75;3.40;;;;;;;;;;5072103;28;20050;-67
2021/08/31 04:44:51;;;;;;;5.18;3.35;;;;;;;;;;5071815;28;20057;-68
2021/08/31 04:47:19;;;;;;;6.70;3.60;;;;;;;;;;5070987;28;20049;-67
2021/08/31 04:49:46;;;;;;;6.45;4.05;;;;;;;;;;5052450;28;20088;-67
2021/08/31 04:52:14;;;;;;;7.72;4.32;;;;;;;;;;5067021;28;20488;-68
2021/08/31 04:54:40;;;;;;;5.85;3.67;;;;;;;;;;5072227;28;20060;-67
2021/08/31 04:57:07;;;;;;;6.97;3.78;;;;;;;;;;5072176;28;20512;-67
2021/08/31 04:59:33;;;;;;;8.18;3.88;;;;;;;;;;5070845;28;20044;-68
2021/08/31 05:02:00;;;;;;;7.45;3.80;;;;;;;;;;5069481;28;20044;-68
2021/08/31 05:04:29;;;;;;;5.82;3.50;;;;;;;;;;5067991;28;20048;-68
2021/08/31 05:06:55;;;;;;;7.35;4.28;;;;;;;;;;5071482;28;20796;-68
2021/08/31 05:09:23;;;;;;;7.97;4.30;;;;;;;;;;5071935;28;20109;-68
2021/08/31 05:11:50;;;;;;;9.02;4.50;;;;;;;;;;5071896;28;20055;-67
2021/08/31 05:14:16;;;;;;;6.60;4.15;;;;;;;;;;5071311;28;20055;-67
2021/08/31 05:16:43;;;;;;;6.72;3.92;;;;;;;;;;5071718;28;20040;-68
2021/08/31 05:19:10;;;;;;;10.00;5.18;;;;;;;;;;5072139;28;20056;-67
2021/08/31 05:21:36;;;;;;;7.13;4.63;;;;;;;;;;5071293;28;20161;-68
2021/08/31 05:24:03;;;;;;;6.68;4.05;;;;;;;;;;5071069;28;20044;-67
2021/08/31 05:26:31;;;;;;;7.07;3.92;;;;;;;;;;5071098;28;20052;-67
2021/08/31 05:28:57;;;;;;;9.50;4.93;;;;;;;;;;5071926;28;20059;-67
2021/08/31 05:31:24;;;;;;;9.70;4.60;;;;;;;;;;5071544;28;20052;-68
2021/08/31 05:33:50;;;;;;;8.23;4.78;;;;;;;;;;5070962;28;20059;-68
2021/08/31 05:36:17;;;;;;;7.65;4.45;;;;;;;;;;5071142;28;20037;-67
2021/08/31 05:38:43;;;;;;;7.30;4.50;;;;;;;;;;5071415;28;20139;-67
2021/08/31 05:41:10;;;;;;;8.70;5.05;;;;;;;;;;5071278;28;20052;-68
2021/08/31 05:43:37;;;;;;;7.78;4.82;;;;;;;;;;5071186;28;20053;-68
2021/08/31 05:46:04;;;;;;;7.40;4.22;;;;;;;;;;5069717;28;20036;-67
2021/08/31 05:48:31;;;;;;;9.90;4.32;;;;;;;;;;5071071;28;20048;-67
2021/08/31 05:50:57;;;;;;;7.18;4.35;;;;;;;;;;5071290;28;20389;-68
2021/08/31 05:53:24;;;;;;;8.80;4.78;;;;;;;;;;5071585;28;20052;-67
2021/08/31 05:55:50;;;;;;;8.57;4.85;;;;;;;;;;5071164;28;20063;-68
2021/08/31 05:58:17;;;;;;;8.20;4.50;;;;;;;;;;5071623;28;20123;-67
2021/08/31 06:00:45;;;;;;;7.05;4.18;;;;;;;;;;5069393;28;20041;-67
2021/08/31 06:03:11;;;;;;;9.50;4.43;;;;;;;;;;5067200;28;20394;-67
2021/08/31 06:05:38;;;;;;;8.88;4.43;;;;;;;;;;5065531;28;20043;-67
2021/08/31 06:08:05;;;;;;;9.60;5.38;;;;;;;;;;5071483;28;20048;-67
2021/08/31 06:10:32;;;;;;;8.10;4.60;;;;;;;;;;5070922;28;20060;-67
2021/08/31 06:13:00;;;;;;;8.77;4.80;;;;;;;;;;5070710;28;20056;-67
2021/08/31 06:15:27;;;;;;;8.55;4.80;;;;;;;;;;5071069;28;20052;-67
2021/08/31 06:17:54;;;;;;;7.05;3.90;;;;;;;;;;5071347;28;20053;-67
2021/08/31 06:20:21;;;;;;;8.70;4.50;;;;;;;;;;5070871;28;20060;-67
2021/08/31 06:22:48;;;;;;;7.22;4.57;;;;;;;;;;5071152;28;20401;-68
2021/08/31 06:25:14;;;;;;;8.60;4.97;;;;;;;;;;5070519;28;20074;-67
2021/08/31 06:27:41;;;;;;;9.50;4.63;;;;;;;;;;5051390;28;20049;-67
2021/08/31 06:30:08;;;;;;;8.68;4.88;;;;;;;;;;5051198;28;20045;-67
2021/08/31 06:32:35;;;;;;;9.77;4.38;;;;;;;;;;5064958;28;20056;-67
2021/08/31 06:35:03;;;;;;;7.32;4.35;;;;;;;;;;5069523;28;20048;-67
2021/08/31 06:37:29;;;;;;;6.57;4.07;;;;;;;;;;5070923;28;20048;-67
2021/08/31 06:39:55;;;;;;;7.45;4.65;;;;;;;;;;5070717;28;20048;-67
2021/08/31 06:42:22;;;;;;;10.95;4.85;;;;;;;;;;5070416;28;20049;-67
2021/08/31 06:44:48;;;;;;;8.48;4.78;;;;;;;;;;5072407;28;20047;-67
2021/08/31 06:47:15;;;;;;;8.23;5.18;;;;;;;;;;5088513;28;20435;-67
2021/08/31 06:49:41;;;;;;;15.68;5.85;;;;;;;;;;5078732;28;20055;-67
2021/08/31 06:52:09;;;;;;;6.55;4.70;;;;;;;;;;5079810;28;20055;-67
2021/08/31 06:54:36;;;;;;;10.98;4.75;;;;;;;;;;5070839;28;20394;-67
2021/08/31 06:57:02;;;;;;;10.32;5.25;;;;;;;;;;5070969;28;20075;-67
2021/08/31 06:59:29;;;;;;;7.47;4.70;;;;;;;;;;5070664;28;20052;-67
2021/08/31 07:01:56;;;;;;;11.43;5.50;;;;;;;;;;5071138;28;20122;-67
2021/08/31 07:04:22;;;;;;;13.00;4.63;;;;;;;;;;5066954;28;20049;-67
2021/08/31 07:06:49;;;;;;;7.65;5.10;;;;;;;;;;5064760;28;20481;-67
2021/08/31 07:09:17;;;;;;;8.32;4.13;;;;;;;;;;5074053;28;20083;-67
2021/08/31 07:11:43;;;;;;;7.03;4.07;;;;;;;;;;5074215;28;20053;-67
2021/08/31 07:14:10;;;;;;;7.75;4.47;;;;;;;;;;5074482;28;20060;-67
2021/08/31 07:16:36;;;;;;;8.35;4.32;;;;;;;;;;5074095;28;20507;-67
2021/08/31 07:19:03;;;;;;;6.50;4.00;;;;;;;;;;5074068;28;20106;-67
2021/08/31 07:21:29;;;;;;;5.97;4.50;;;;;;;;;;5073750;28;20048;-67
2021/08/31 07:23:56;;;;;;;7.72;4.60;;;;;;;;;;5073371;28;20059;-67
2021/08/31 07:26:23;;;;;;;6.68;4.15;;;;;;;;;;5073241;28;20040;-67
2021/08/31 07:28:50;;;;;;;6.50;4.57;;;;;;;;;;5073572;28;20501;-67
2021/08/31 07:31:17;;;;;;;7.00;4.20;;;;;;;;;;5073614;28;20405;-67
2021/08/31 07:33:44;;;;;;;7.85;4.45;;;;;;;;;;5073448;28;20048;-67
2021/08/31 07:36:11;;;;;;;6.50;4.07;;;;;;;;;;5073599;28;20485;-67
2021/08/31 07:38:38;;;;;;;7.85;4.72;;;;;;;;;;5073330;28;20048;-68
2021/08/31 07:41:04;;;;;;;7.60;4.05;;;;;;;;;;5073015;28;20048;-68
2021/08/31 07:43:32;;;;;;;4.88;3.38;;;;;;;;;;5073901;28;20049;-67
2021/08/31 07:45:58;;;;;;;6.55;3.80;;;;;;;;;;5073257;28;20492;-67
2021/08/31 07:48:25;;;;;;;6.10;4.05;;;;;;;;;;5073448;28;20048;-67
2021/08/31 07:50:51;;;;;;;6.78;4.15;;;;;;;;;;5073241;28;20052;-68
2021/08/31 07:53:18;;;;;;;8.32;4.30;;;;;;;;;;5073337;28;20052;-67
2021/08/31 07:55:44;;;;;;;7.18;4.50;;;;;;;;;;5073545;28;20045;-67
2021/08/31 07:58:11;;;;;;;7.63;4.38;;;;;;;;;;5073308;28;20053;-67
2021/08/31 08:00:40;;;;;;;10.77;4.30;;;;;;;;;;5073047;28;20048;-67
2021/08/31 08:03:06;;;;;;;11.63;4.25;;;;;;;;;;5070223;28;20056;-67
2021/08/31 08:05:33;;;;;;;8.88;4.30;;;;;;;;;;5072776;28;20460;-67
2021/08/31 08:07:59;;;;;;;9.20;4.20;;;;;;;;;;5072998;28;20044;-67
2021/08/31 08:10:26;;;;;;;6.47;3.95;;;;;;;;;;5073057;28;20072;-67
2021/08/31 08:12:52;;;;;;;7.55;3.85;;;;;;;;;;5070494;28;20044;-67
2021/08/31 08:15:21;;;;;;;7.20;4.18;;;;;;;;;;5071961;28;20044;-67
2021/08/31 08:17:49;;;;;;;7.07;4.57;;;;;;;;;;5068948;28;20044;-67
2021/08/31 08:20:16;;;;;;;7.90;4.35;;;;;;;;;;5072236;28;20903;-67
2021/08/31 08:22:43;;;;;;;7.68;4.63;;;;;;;;;;5071593;28;20041;-67
2021/08/31 08:25:11;;;;;;;6.93;3.83;;;;;;;;;;5065515;28;20045;-67
2021/08/31 08:27:37;;;;;;;7.47;4.18;;;;;;;;;;5068931;28;20047;-67
2021/08/31 08:30:05;;;;;;;6.90;4.60;;;;;;;;;;5073288;28;20048;-67
2021/08/31 08:32:31;;;;;;;8.65;4.80;;;;;;;;;;5069467;28;20052;-67
2021/08/31 08:34:59;;;;;;;8.75;4.43;;;;;;;;;;5072009;28;20041;-67
2021/08/31 08:37:26;;;;;;;6.22;3.92;;;;;;;;;;5071686;28;20068;-67
2021/08/31 08:39:52;;;;;;;5.35;3.58;;;;;;;;;;5071665;28;20044;-67
2021/08/31 08:42:19;;;;;;;6.25;4.00;;;;;;;;;;5064084;28;20052;-67
2021/08/31 08:44:46;;;;;;;8.52;4.40;;;;;;;;;;5060317;28;20045;-67
2021/08/31 08:47:14;;;;;;;6.82;4.38;;;;;;;;;;5070122;28;20139;-67
2021/08/31 08:49:40;;;;;;;7.78;4.13;;;;;;;;;;5072235;28;20477;-67
2021/08/31 08:52:08;;;;;;;6.88;4.20;;;;;;;;;;5072244;28;20048;-67
2021/08/31 08:54:35;;;;;;;6.78;4.43;;;;;;;;;;5072368;28;20048;-67
2021/08/31 08:57:01;;;;;;;6.25;4.40;;;;;;;;;;5071862;28;20052;-67
2021/08/31 08:59:28;;;;;;;8.50;4.72;;;;;;;;;;5072295;28;20055;-67
2021/08/31 09:01:56;;;;;;;6.30;3.90;;;;;;;;;;5063367;28;20135;-67
2021/08/31 09:04:44;;;;;;;6.82;4.20;;;;;;;;;;5070426;28;20444;-67
2021/08/31 09:07:22;;;;;;;6.88;4.22;;;;;;;;;;5071612;28;20055;-67
2021/08/31 09:09:50;;;;;;;6.15;4.63;;;;;;;;;;5066228;28;20042;-67
2021/08/31 09:12:31;;;;;;;6.60;4.05;;;;;;;;;;5061767;28;20052;-67
2021/08/31 09:14:57;;;;;;;5.55;4.35;;;;;;;;;;5070176;28;20057;-67
2021/08/31 09:17:24;;;;;;;7.95;4.43;;;;;;;;;;5063282;28;20048;-67
2021/08/31 09:19:50;;;;;;;6.47;4.38;;;;;;;;;;5069142;28;20049;-67
2021/08/31 09:22:18;;;;;;;6.15;4.38;;;;;;;;;;5068508;28;20044;-67
2021/08/31 09:25:01;;;;;;;8.50;4.35;;;;;;;;;;5066527;28;20040;-67
2021/08/31 09:27:34;;;;;;;8.50;4.35;;;;;;;;;;5070266;28;20052;-67
2021/08/31 09:30:15;;;;;;;6.70;3.75;;;;;;;;;;5051758;28;20413;-67
2021/08/31 09:33:00;;;;;;;5.32;3.53;;;;;;;;;;5051741;28;20060;-67
2021/08/31 09:35:30;;;;;;;6.07;3.72;;;;;;;;;;5070086;28;20056;-67
2021/08/31 09:37:59;;;;;;;6.55;3.50;;;;;;;;;;5068204;28;20485;-67
2021/08/31 09:40:30;;;;;;;5.80;3.33;;;;;;;;;;5069733;28;20048;-67
2021/08/31 09:43:00;;;;;;;6.13;3.88;;;;;;;;;;5071224;28;20053;-67
2021/08/31 09:45:29;;;;;;;5.22;3.90;;;;;;;;;;5061120;28;20057;-67
2021/08/31 09:47:56;;;;;;;7.57;3.92;;;;;;;;;;5071144;28;20052;-67
2021/08/31 09:50:29;;;;;;;7.00;3.28;;;;;;;;;;5071623;28;20415;-67
2021/08/31 09:53:11;;;;;;;6.72;3.60;;;;;;;;;;5071424;28;20053;-67
2021/08/31 09:55:40;;;;;;;5.85;3.40;;;;;;;;;;5060385;28;20443;-67
2021/08/31 09:58:14;;;;;;;6.93;3.70;;;;;;;;;;5070800;28;20048;-67
2021/08/31 10:00:42;;;;;;;7.68;3.65;;;;;;;;;;5068600;28;20048;-67
2021/08/31 10:03:09;;;;;;;5.55;3.28;;;;;;;;;;5070597;28;20045;-67
2021/08/31 10:05:36;;;;;;;6.13;3.75;;;;;;;;;;5070295;28;20064;-67
2021/08/31 10:08:04;;;;;;;6.97;3.55;;;;;;;;;;5071179;28;20163;-67
2021/08/31 10:10:32;;;;;;;6.68;3.58;;;;;;;;;;5068441;28;20056;-67
2021/08/31 10:13:02;;;;;;;5.80;3.58;;;;;;;;;;5070533;28;20053;-67
2021/08/31 10:15:31;;;;;;;5.70;3.88;;;;;;;;;;5070497;28;20481;-67
2021/08/31 10:17:57;;;;;;;8.52;3.38;;;;;;;;;;5070440;28;20048;-67
2021/08/31 10:20:27;;;;;;;5.50;3.25;;;;;;;;;;5061846;28;20056;-67
2021/08/31 10:22:54;;;;;;;5.70;3.10;;;;;;;;;;5060295;28;20048;-67
2021/08/31 10:25:26;;;;;;;4.70;3.25;;;;;;;;;;5069417;28;20136;-67
2021/08/31 10:27:53;;;;;;;7.85;3.88;;;;;;;;;;5069509;28;20040;-67
2021/08/31 10:30:39;;;;;;;6.15;3.45;;;;;;;;;;5066789;28;20600;-67
2021/08/31 10:33:45;;;;;;;7.18;3.58;;;;;;;;;;5054098;28;20476;-67
2021/08/31 10:36:12;;;;;;;6.25;3.30;;;;;;;;;;5069351;28;20045;-67
2021/08/31 10:38:45;;;;;;;4.90;3.15;;;;;;;;;;5065744;28;20177;-67
2021/08/31 10:41:46;;;;;;;5.40;3.17;;;;;;;;;;5068209;28;20051;-67
2021/08/31 10:44:15;;;;;;;4.38;3.20;;;;;;;;;;5073895;28;20134;-67
2021/08/31 10:47:29;;;;;;;7.82;3.17;;;;;;;;;;5063475;28;20056;-67
2021/08/31 10:50:15;;;;;;;5.65;3.50;;;;;;;;;;5052875;28;20048;-69
2021/08/31 10:52:48;;;;;;;8.10;3.58;;;;;;;;;;5071900;28;20060;-67
2021/08/31 10:55:39;;;;;;;4.63;3.22;;;;;;;;;;5070390;28;20142;-68
2021/08/31 10:58:09;;;;;;;5.25;2.90;;;;;;;;;;5066437;28;20472;-67
2021/08/31 11:00:54;;;;;;;5.68;3.22;;;;;;;;;;5074897;28;20127;-67
2021/08/31 11:03:37;;;;;;;4.93;2.97;;;;;;;;;;5073626;28;20068;-67
2021/08/31 11:06:27;;;;;;;6.95;3.28;;;;;;;;;;5073238;28;20052;-67
2021/08/31 11:09:11;;;;;;;4.68;3.05;;;;;;;;;;5060545;28;20099;-67
2021/08/31 11:11:39;;;;;;;5.95;3.30;;;;;;;;;;5072601;28;20044;-67
2021/08/31 11:14:06;;;;;;;5.50;3.53;;;;;;;;;;5072288;28;20053;-67
2021/08/31 11:16:36;;;;;;;5.95;2.83;;;;;;;;;;5068169;28;20056;-67
2021/08/31 11:19:05;;;;;;;5.88;3.08;;;;;;;;;;5071385;28;20044;-68
2021/08/31 11:21:45;;;;;;;4.40;2.88;;;;;;;;;;5072786;28;20041;-67
2021/08/31 11:24:12;;;;;;;6.28;2.72;;;;;;;;;;5071763;28;20045;-68
2021/08/31 11:26:39;;;;;;;3.95;2.63;;;;;;;;;;5068040;28;20072;-68
2021/08/31 11:29:10;;;;;;;5.63;2.50;;;;;;;;;;5064339;28;20063;-70
2021/08/31 11:31:37;;;;;;;5.10;3.30;;;;;;;;;;5066168;28;20397;-71
2021/08/31 11:34:10;;;;;;;4.82;3.42;;;;;;;;;;5069872;28;20045;-69
2021/08/31 11:36:38;;;;;;;4.25;2.75;;;;;;;;;;5072305;28;20063;-67
2021/08/31 11:39:06;;;;;;;5.00;2.75;;;;;;;;;;5069136;28;20288;-67
2021/08/31 11:41:36;;;;;;;5.03;3.10;;;;;;;;;;5069400;28;20059;-68
2021/08/31 11:44:08;;;;;;;5.68;2.80;;;;;;;;;;5066152;28;20041;-68
2021/08/31 11:46:37;;;;;;;3.90;2.80;;;;;;;;;;5070012;28;20473;-68
2021/08/31 11:49:14;;;;;;;4.57;2.85;;;;;;;;;;5063690;28;20450;-68
2021/08/31 11:51:42;;;;;;;5.22;2.97;;;;;;;;;;5067214;28;20504;-67
2021/08/31 11:54:10;;;;;;;5.75;3.20;;;;;;;;;;5066745;28;20508;-67
2021/08/31 11:56:37;;;;;;;4.43;2.97;;;;;;;;;;5071162;28;20133;-68
2021/08/31 11:59:04;;;;;;;5.68;2.78;;;;;;;;;;5068827;28;20049;-67
2021/08/31 12:01:32;;;;;;;6.55;3.08;;;;;;;;;;5071380;28;20060;-68
2021/08/31 12:06:57;;;;;;;5.40;3.10;;;;;;;;;;5108928;27;20414;-66
2021/08/31 12:09:24;;;;;;;7.22;4.28;;;;;;;;;;5098512;28;20155;-66
2021/08/31 12:11:51;;;;;;;5.90;2.92;;;;;;;;;;5086028;28;20056;-66
2021/08/31 12:14:18;;;;;;;5.85;3.35;;;;;;;;;;5083022;28;20048;-68
2021/08/31 12:16:45;;;;;;;6.30;3.28;;;;;;;;;;5092500;28;20052;-67
2021/08/31 12:19:16;;;;;;;6.93;3.47;;;;;;;;;;5090522;28;20052;-67
2021/08/31 12:21:43;;;;;;;4.70;2.97;;;;;;;;;;5090174;28;20056;-71
2021/08/31 12:24:14;;;;;;;5.63;3.00;;;;;;;;;;5075465;28;20053;-66
2021/08/31 12:26:40;;;;;;;4.32;2.47;;;;;;;;;;5070358;28;20059;-67
2021/08/31 12:29:10;;;;;;;6.15;3.75;;;;;;;;;;5082651;28;20378;-66
2021/08/31 12:31:37;;;;;;;5.38;3.38;;;;;;;;;;5080119;28;20052;-66
2021/08/31 12:34:04;;;;;;;4.43;2.60;;;;;;;;;;5088131;28;20084;-66
2021/08/31 12:36:33;;;;;;;10.52;3.42;;;;;;;;;;5085909;28;20056;-67
2021/08/31 12:39:05;;;;;;;7.43;3.53;;;;;;;;;;5090090;28;20075;-67
2021/08/31 12:41:40;;;;;;;7.35;3.10;;;;;;;;;;5091253;28;20552;-66
2021/08/31 12:44:16;;;;;;;5.25;3.08;;;;;;;;;;5089277;28;20047;-71
2021/08/31 12:46:42;;;;;;;;;;;;;;;;;;5088573;28;20044;-67
2021/08/31 12:49:11;;;;;;;6.47;3.00;;;;;;;;;;5090802;28;19962;-66
2021/08/31 12:51:40;;;;;;;4.97;3.35;;;;;;;;;;5087821;28;20056;-67
2021/08/31 12:54:07;;;;;;;4.43;2.70;;;;;;;;;;5084118;28;20051;-67
2021/08/31 12:56:33;;;;;;;7.15;3.05;;;;;;;;;;5088672;28;20127;-67
2021/08/31 12:59:09;;;;;;;6.22;2.97;;;;;;;;;;5090081;28;20040;-67
2021/08/31 13:01:50;;;;;;;5.55;3.13;;;;;;;;;;5085948;28;20531;-68
2021/08/31 13:04:17;;;;;;;6.32;3.40;;;;;;;;;;5084503;28;20048;-67
2021/08/31 13:06:45;;;;;;;5.47;3.15;;;;;;;;;;5083233;28;20056;-67
2021/08/31 13:09:12;;;;;;;5.45;3.55;;;;;;;;;;5089012;28;20333;-68
2021/08/31 13:11:41;;;;;;;4.65;3.13;;;;;;;;;;5089095;28;20052;-67
2021/08/31 13:14:10;;;;;;;5.55;3.10;;;;;;;;;;5089787;28;20064;-68
2021/08/31 13:16:37;;;;;;;5.65;3.10;;;;;;;;;;5084608;28;20053;-68
2021/08/31 13:19:04;;;;;;;5.28;3.15;;;;;;;;;;5075043;28;20045;-67
2021/08/31 13:21:30;;;;;;;4.70;3.03;;;;;;;;;;5076903;28;20408;-67
2021/08/31 13:23:57;;;;;;;4.53;3.17;;;;;;;;;;5075927;28;20056;-67
2021/08/31 13:26:23;;;;;;;4.20;2.85;;;;;;;;;;5079930;28;20457;-67
2021/08/31 13:28:50;;;;;;;7.05;2.83;;;;;;;;;;5076428;28;20401;-67
2021/08/31 13:31:18;;;;;;;6.18;2.70;;;;;;;;;;5076028;28;20389;-67
2021/08/31 13:33:45;;;;;;;5.65;3.40;;;;;;;;;;5067609;28;20053;-67
2021/08/31 13:36:12;;;;;;;6.75;3.42;;;;;;;;;;5059218;28;20068;-68
2021/08/31 13:38:38;;;;;;;4.65;3.10;;;;;;;;;;5078110;28;20393;-68
2021/08/31 13:41:05;;;;;;;5.85;3.70;;;;;;;;;;5074188;28;20063;-68
2021/08/31 13:43:31;;;;;;;4.88;3.28;;;;;;;;;;5076089;28;20049;-68
2021/08/31 13:45:58;;;;;;;6.72;2.97;;;;;;;;;;5077107;28;20072;-67
2021/08/31 13:48:27;;;;;;;5.78;3.17;;;;;;;;;;5080307;28;20056;-67
2021/08/31 13:50:54;;;;;;;5.45;3.30;;;;;;;;;;5069210;28;20053;-68
2021/08/31 13:53:20;;;;;;;5.78;4.00;;;;;;;;;;5073944;28;20055;-68
2021/08/31 13:55:47;;;;;;;6.72;3.42;;;;;;;;;;5074838;28;20049;-68
2021/08/31 13:58:16;;;;;;;5.10;2.70;;;;;;;;;;5071795;28;20045;-67
2021/08/31 14:00:43;;;;;;;6.00;3.10;;;;;;;;;;5072046;28;20384;-68
2021/08/31 14:03:10;;;;;;;6.10;3.13;;;;;;;;;;5072673;28;20076;-70
2021/08/31 14:05:38;;;;;;;6.50;3.47;;;;;;;;;;5074855;28;20048;-68
2021/08/31 14:08:05;;;;;;;4.53;2.95;;;;;;;;;;5073331;28;20058;-67
2021/08/31 14:10:31;;;;;;;4.13;2.90;;;;;;;;;;5074126;28;20500;-68
2021/08/31 14:12:59;;;;;;;4.22;2.75;;;;;;;;;;5074959;28;20405;-68
2021/08/31 14:15:25;;;;;;;5.30;2.90;;;;;;;;;;5073245;28;20113;-67
2021/08/31 14:17:52;;;;;;;4.80;2.80;;;;;;;;;;5075542;28;20056;-67
2021/08/31 14:20:18;;;;;;;5.47;3.05;;;;;;;;;;5074599;28;20053;-68
2021/08/31 14:22:46;;;;;;;6.22;3.35;;;;;;;;;;5073512;28;20161;-67
2021/08/31 14:25:13;;;;;;;6.18;2.97;;;;;;;;;;5071452;28;20044;-66
2021/08/31 14:27:39;;;;;;;4.70;3.08;;;;;;;;;;5069957;28;20048;-66
2021/08/31 14:30:07;;;;;;;4.53;2.63;;;;;;;;;;5069138;28;20055;-66
2021/08/31 14:32:34;;;;;;;4.53;2.72;;;;;;;;;;5069249;28;20053;-66
2021/08/31 14:35:00;;;;;;;4.80;3.00;;;;;;;;;;5068407;28;20048;-66
2021/08/31 14:37:27;;;;;;;6.30;3.25;;;;;;;;;;5068425;28;20037;-66
2021/08/31 14:39:54;;;;;;;6.35;2.95;;;;;;;;;;5069640;28;20044;-66
2021/08/31 14:42:21;;;;;;;5.43;3.00;;;;;;;;;;5063786;28;20512;-66
2021/08/31 14:44:47;;;;;;;4.28;2.47;;;;;;;;;;5069244;28;20059;-67
2021/08/31 14:47:14;;;;;;;4.20;2.58;;;;;;;;;;5072051;28;20389;-67
2021/08/31 14:49:40;;;;;;;4.38;2.65;;;;;;;;;;5070033;28;20765;-66
2021/08/31 14:52:08;;;;;;;4.20;2.55;;;;;;;;;;5067835;28;20056;-66